Wausau, WI (54401)

9:31 PM CST on February 10, 2016 (GMT -0600)
Thomas Jefferson Elementary, Across the Street | | Change Station
CLOSE
Current Station
Personal Weather Station
Location: Wausau, WI
Elevation: 1276 ft
Nearby Weather Stations

Elev 1276 ft 44.98 °N, 89.64 °W | Updated 13 minutes ago

Scattered Clouds
Scattered Clouds
1.4 °F
Feels Like 1 °F
N
1.7
Wind Variable Wind from WNW

Today
High -- | Low -- °F
--% Chance of Precip.
Yesterday
High -- | Low -- °F
Precip. -- in
Pressure 30.22 in
Visibility -9999.0 miles
Clouds Scattered Clouds 2800 ft
Windchill 1 °F
Dew Point -5 °F
Humidity 75%
Rainfall 0.00 in
Snow Depth Not available.
7:07 AM 5:18 PM
Waxing Crescent, 9% visible
METAR KAUW 110254Z AUTO 33006KT SCT028 M14/M20 A3012 RMK AO2 SLP232 T11441200 52022 $
Pressure 30.22 in
Visibility -9999.0 miles
Clouds Scattered Clouds 2800 ft
Windchill 1 °F
Dew Point -5 °F
Humidity 75%
Rainfall 0.00 in
Snow Depth Not available.
7:07 AM 5:18 PM
Waxing Crescent, 9% visible
METAR KAUW 110254Z AUTO 33006KT SCT028 M14/M20 A3012 RMK AO2 SLP232 T11441200 52022 $

10-Day Weather Forecast

Almanac

Astronomy

Feb. 10, 2016 Rise Set
Actual Time
Civil Twilight
Nautical Twilight
Astronomical Twilight
Moon
Length of Visible Light
Length of Day
Tomorrow will be .
, % of the Moon is Illuminated

Today's Extremes

State Highs State Lows

Community

WunderPhotos

Upload Photos

1,891,994 photos uploaded!

WunderBlog® & News

Nearby

Air Quality

  Air Quality AQ Index Pollutant
Not available.

Snow Depth

Station Depth Elevation

Earthquake Activity

City Distance Mag. Time & Date
Minimum magnitude displayed is 2.5.

Coastal Water Temperatures

Place Temperature

Stations

Nearby Weather Stations

Station Location Temp. Windchill Dew Point Humidity Wind Precip. Elev Updated Type
                   

Watches & Warnings

There are currently no watches in effect.